createdAt,value
2019-03-13T00:00:36.051Z,42.93
2019-03-13T00:01:39.848Z,43.02
2019-03-13T00:02:42.546Z,42.89
2019-03-13T00:03:44.902Z,42.87
2019-03-13T00:04:47.829Z,42.97
2019-03-13T00:05:50.147Z,42.88
2019-03-13T00:06:52.360Z,43.01
2019-03-13T00:07:54.686Z,43.07
2019-03-13T00:08:56.959Z,43.00
2019-03-13T00:09:59.061Z,42.87
2019-03-13T00:11:01.282Z,43.03
2019-03-13T00:12:03.491Z,43.01
2019-03-13T00:13:05.512Z,43.06
2019-03-13T00:14:08.042Z,43.00
2019-03-13T00:15:12.921Z,43.09
2019-03-13T00:16:15.213Z,43.06
2019-03-13T00:17:17.587Z,43.02
2019-03-13T00:18:20.667Z,43.11
2019-03-13T00:19:23.283Z,43.06
2019-03-13T00:20:25.716Z,43.25
2019-03-13T00:21:27.870Z,43.14
2019-03-13T00:22:31.438Z,43.10
2019-03-13T00:23:33.578Z,43.18
2019-03-13T00:24:35.764Z,43.34
2019-03-13T00:25:38.354Z,43.24
2019-03-13T00:26:40.274Z,43.24
2019-03-13T00:27:42.326Z,43.36
2019-03-13T00:28:44.616Z,43.21
2019-03-13T00:29:46.628Z,43.19
2019-03-13T00:30:48.906Z,43.17
2019-03-13T00:31:51.321Z,43.30
2019-03-13T00:32:53.436Z,43.22
2019-03-13T00:33:57.014Z,43.37
2019-03-13T00:34:59.275Z,43.30
2019-03-13T00:36:01.636Z,43.56
2019-03-13T00:37:03.686Z,43.30
2019-03-13T00:38:05.866Z,43.37
2019-03-13T00:39:08.213Z,43.73
2019-03-13T00:40:11.290Z,43.51
2019-03-13T00:41:13.497Z,43.50
2019-03-13T00:42:15.913Z,43.51
2019-03-13T00:43:17.963Z,43.53
2019-03-13T00:44:20.043Z,43.47
2019-03-13T00:45:22.195Z,43.58
2019-03-13T00:46:24.613Z,43.57
2019-03-13T00:47:26.931Z,43.56
2019-03-13T00:48:29.234Z,43.50
2019-03-13T00:49:31.423Z,43.52
2019-03-13T00:50:33.653Z,43.34
2019-03-13T00:51:36.972Z,43.30
2019-03-13T00:52:40.462Z,43.40
2019-03-13T00:53:42.841Z,43.27
2019-03-13T00:54:45.206Z,43.33
2019-03-13T00:55:48.347Z,43.23
2019-03-13T00:56:50.479Z,43.26
2019-03-13T00:57:53.448Z,43.18
2019-03-13T00:58:55.775Z,43.20
2019-03-13T00:59:58.003Z,43.25
2019-03-13T01:01:05.878Z,43.19
2019-03-13T01:02:25.265Z,43.13
2019-03-13T01:03:30.592Z,43.10
2019-03-13T01:04:34.698Z,43.15
2019-03-13T01:05:41.995Z,43.11
2019-03-13T01:06:45.828Z,43.07
2019-03-13T01:07:48.567Z,43.08
2019-03-13T01:08:50.650Z,43.33
2019-03-13T01:09:54.188Z,43.19
2019-03-13T01:10:58.289Z,43.06
2019-03-13T01:12:00.471Z,42.99
2019-03-13T01:13:02.434Z,42.95
2019-03-13T01:14:04.922Z,43.00
2019-03-13T01:15:08.554Z,42.88
2019-03-13T01:16:11.558Z,42.85
2019-03-13T01:17:13.719Z,43.25
2019-03-13T01:18:15.942Z,43.15
2019-03-13T01:19:17.841Z,43.22
2019-03-13T01:20:20.075Z,43.14
2019-03-13T01:21:23.329Z,43.18
2019-03-13T01:22:25.496Z,43.19
2019-03-13T01:23:27.369Z,43.07
2019-03-13T01:24:30.760Z,43.43
2019-03-13T01:25:32.884Z,43.11
2019-03-13T01:26:35.130Z,42.94
2019-03-13T01:27:37.174Z,43.01
2019-03-13T01:28:39.390Z,43.05
2019-03-13T01:29:41.442Z,43.10
2019-03-13T01:30:45.211Z,43.14
2019-03-13T01:31:52.077Z,43.07
2019-03-13T01:32:56.196Z,43.11
2019-03-13T01:34:06.014Z,42.90
2019-03-13T01:35:10.590Z,42.98
2019-03-13T01:36:12.824Z,43.03
2019-03-13T01:37:14.921Z,43.03
2019-03-13T01:38:17.128Z,42.98
2019-03-13T01:39:19.025Z,42.81
2019-03-13T01:40:21.238Z,43.08
2019-03-13T01:41:23.415Z,43.01
2019-03-13T01:42:25.321Z,43.07
2019-03-13T01:43:27.657Z,43.21
2019-03-13T01:44:29.882Z,43.22
2019-03-13T01:45:33.949Z,43.20
2019-03-13T01:46:35.901Z,43.23
2019-03-13T01:47:38.075Z,43.25
2019-03-13T01:48:40.135Z,43.16
2019-03-13T01:49:42.039Z,43.15
2019-03-13T01:50:44.246Z,43.10
2019-03-13T01:51:46.299Z,42.98
2019-03-13T01:52:48.291Z,43.06
2019-03-13T01:53:50.355Z,43.07
2019-03-13T01:54:52.680Z,43.24
2019-03-13T01:55:54.938Z,43.26
2019-03-13T01:56:57.063Z,43.17
2019-03-13T01:57:59.557Z,43.26
2019-03-13T01:59:01.971Z,43.21
2019-03-13T02:00:15.350Z,43.10
2019-03-13T02:01:19.940Z,43.23
2019-03-13T02:02:22.082Z,43.24
2019-03-13T02:03:24.319Z,43.25
2019-03-13T02:04:26.280Z,43.22
2019-03-13T02:05:28.788Z,43.22
2019-03-13T02:06:30.972Z,43.26
2019-03-13T02:07:33.168Z,43.29
2019-03-13T02:08:35.054Z,43.23
2019-03-13T02:09:37.349Z,43.28
2019-03-13T02:10:39.508Z,43.23
2019-03-13T02:11:41.696Z,43.25
2019-03-13T02:12:43.483Z,43.37
2019-03-13T02:13:45.709Z,43.22
2019-03-13T02:14:47.783Z,43.38
2019-03-13T02:15:49.938Z,43.39
2019-03-13T02:16:51.928Z,43.24
2019-03-13T02:17:54.072Z,43.50
2019-03-13T02:18:56.112Z,43.48
2019-03-13T02:19:58.197Z,43.34
2019-03-13T02:21:00.144Z,43.44
2019-03-13T02:22:02.226Z,43.33
2019-03-13T02:23:04.272Z,43.37
2019-03-13T02:24:06.760Z,43.41
2019-03-13T02:25:13.450Z,43.55
2019-03-13T02:26:15.796Z,43.52
2019-03-13T02:27:17.836Z,43.60
2019-03-13T02:28:19.888Z,43.59
2019-03-13T02:29:23.026Z,43.44
2019-03-13T02:30:27.033Z,43.59
2019-03-13T02:31:29.278Z,43.57
2019-03-13T02:32:31.580Z,43.58
2019-03-13T02:33:33.839Z,43.73
2019-03-13T02:34:36.171Z,43.69
2019-03-13T02:35:38.553Z,43.77
2019-03-13T02:36:40.804Z,43.67
2019-03-13T02:37:43.108Z,43.54
2019-03-13T02:38:45.060Z,43.59
2019-03-13T02:39:47.472Z,43.79
2019-03-13T02:40:49.709Z,43.79
2019-03-13T02:41:53.365Z,43.86
2019-03-13T02:42:55.569Z,43.71
2019-03-13T02:43:57.650Z,44.00
2019-03-13T02:44:59.838Z,44.07
2019-03-13T02:46:01.798Z,44.08
2019-03-13T02:47:03.902Z,43.97
2019-03-13T02:48:06.214Z,44.11
2019-03-13T02:49:08.415Z,44.08
2019-03-13T02:50:15.769Z,44.16
2019-03-13T02:51:17.620Z,44.16
2019-03-13T02:52:19.732Z,44.24
2019-03-13T02:53:23.824Z,44.16
2019-03-13T02:54:26.205Z,44.15
2019-03-13T02:55:28.577Z,44.08
2019-03-13T02:56:30.953Z,44.08
2019-03-13T02:57:32.730Z,44.13
2019-03-13T02:58:34.846Z,44.00
2019-03-13T02:59:36.811Z,43.94
2019-03-13T03:00:38.964Z,43.97
2019-03-13T03:01:46.202Z,43.93
2019-03-13T03:02:50.266Z,43.93
2019-03-13T03:03:54.084Z,43.92
2019-03-13T03:04:56.312Z,43.90
2019-03-13T03:05:59.949Z,43.86
2019-03-13T03:07:02.134Z,43.88
2019-03-13T03:08:04.258Z,43.82
2019-03-13T03:09:07.513Z,43.80
2019-03-13T03:10:12.332Z,43.81
2019-03-13T03:11:14.482Z,43.84
2019-03-13T03:12:16.630Z,43.82
2019-03-13T03:13:18.719Z,43.84
2019-03-13T03:14:21.224Z,43.95
2019-03-13T03:15:23.261Z,43.92
2019-03-13T03:16:24.955Z,43.89
2019-03-13T03:17:27.245Z,43.86
2019-03-13T03:18:29.382Z,43.82
2019-03-13T03:19:31.491Z,44.04
2019-03-13T03:20:33.641Z,43.91
2019-03-13T03:21:35.539Z,43.79
2019-03-13T03:22:37.829Z,43.66
2019-03-13T03:23:39.749Z,43.79
2019-03-13T03:24:41.996Z,43.60
2019-03-13T03:25:44.363Z,43.71
2019-03-13T03:26:46.448Z,43.75
2019-03-13T03:27:48.433Z,43.55
2019-03-13T03:28:50.467Z,43.54
2019-03-13T03:29:52.479Z,43.60
2019-03-13T03:30:54.674Z,43.56
2019-03-13T03:31:56.824Z,43.95
2019-03-13T03:32:59.083Z,43.62
2019-03-13T03:34:01.387Z,43.57
2019-03-13T03:35:04.786Z,43.91
2019-03-13T03:36:06.968Z,43.97
2019-03-13T03:37:09.035Z,43.84
2019-03-13T03:38:11.312Z,43.92
2019-03-13T03:39:13.420Z,44.08
2019-03-13T03:40:22.256Z,43.66
2019-03-13T03:41:23.614Z,44.00
2019-03-13T03:42:26.060Z,44.14
2019-03-13T03:43:40.292Z,43.98
2019-03-13T03:44:31.751Z,44.03
2019-03-13T03:45:33.909Z,44.02
2019-03-13T03:46:35.757Z,43.83
2019-03-13T03:47:38.813Z,43.79
2019-03-13T03:48:40.778Z,44.05
2019-03-13T03:49:42.855Z,43.98
2019-03-13T03:50:45.269Z,44.19
2019-03-13T03:51:47.133Z,43.80
2019-03-13T03:52:49.326Z,43.86
2019-03-13T03:53:51.440Z,43.98
2019-03-13T03:54:53.457Z,44.02
2019-03-13T03:55:55.791Z,44.21
2019-03-13T03:56:58.111Z,44.18
2019-03-13T03:57:59.861Z,44.44
2019-03-13T03:59:02.026Z,44.42
2019-03-13T04:00:11.923Z,44.07
2019-03-13T04:01:14.115Z,44.38
2019-03-13T04:02:16.478Z,44.10
2019-03-13T04:03:18.640Z,44.19
2019-03-13T04:04:20.757Z,44.27
2019-03-13T04:05:22.934Z,44.21
2019-03-13T04:06:25.304Z,44.12
2019-03-13T04:07:27.522Z,44.07
2019-03-13T04:08:29.715Z,44.29
2019-03-13T04:09:31.833Z,44.20
2019-03-13T04:10:35.946Z,44.16
2019-03-13T04:11:41.740Z,44.16
2019-03-13T04:12:43.604Z,44.18
2019-03-13T04:13:45.619Z,44.15
2019-03-13T04:14:47.742Z,44.14
2019-03-13T04:15:49.648Z,44.10
2019-03-13T04:16:51.862Z,44.35
2019-03-13T04:17:53.845Z,44.09
2019-03-13T04:18:56.003Z,44.03
2019-03-13T04:19:58.144Z,44.12
2019-03-13T04:21:00.095Z,43.92
2019-03-13T04:22:02.517Z,43.95
2019-03-13T04:23:04.633Z,44.04
2019-03-13T04:24:06.727Z,44.03
2019-03-13T04:25:22.163Z,44.05
2019-03-13T04:26:24.372Z,43.85
2019-03-13T04:27:26.328Z,44.04
2019-03-13T04:28:28.824Z,44.10
2019-03-13T04:29:31.064Z,44.36
2019-03-13T04:30:33.162Z,43.93
2019-03-13T04:31:35.337Z,43.92
2019-03-13T04:32:37.763Z,44.01
2019-03-13T04:33:39.982Z,43.97
2019-03-13T04:34:42.089Z,43.82
2019-03-13T04:35:45.292Z,44.00
2019-03-13T04:36:47.367Z,44.20
2019-03-13T04:37:49.333Z,44.29
2019-03-13T04:38:51.436Z,44.14
2019-03-13T04:39:54.062Z,44.23
2019-03-13T04:40:56.583Z,44.25
2019-03-13T04:41:58.644Z,43.78
2019-03-13T04:43:00.930Z,43.43
2019-03-13T04:44:04.187Z,43.72
2019-03-13T04:45:08.289Z,42.00
2019-03-13T04:46:10.175Z,32.29
2019-03-13T04:47:12.285Z,31.16
2019-03-13T04:48:14.283Z,31.29
2019-03-13T04:49:16.186Z,29.58
2019-03-13T04:50:18.246Z,28.93
2019-03-13T04:51:20.446Z,29.23
2019-03-13T04:52:22.403Z,29.64
2019-03-13T04:53:26.473Z,28.27
2019-03-13T04:54:28.435Z,27.51
2019-03-13T04:55:33.457Z,29.40
2019-03-13T04:56:35.553Z,30.86
2019-03-13T04:57:37.945Z,27.91
2019-03-13T04:58:40.553Z,26.50
2019-03-13T04:59:42.675Z,29.47
2019-03-13T05:00:44.843Z,27.03
2019-03-13T05:01:46.783Z,32.97
2019-03-13T05:02:49.212Z,28.67
2019-03-13T05:03:50.996Z,27.27
2019-03-13T05:04:53.353Z,29.55
2019-03-13T05:05:55.538Z,27.00
2019-03-13T05:06:57.273Z,29.33
2019-03-13T05:07:59.351Z,27.45
2019-03-13T05:09:03.591Z,27.43
2019-03-13T05:10:08.495Z,32.58
2019-03-13T05:11:10.463Z,28.11
2019-03-13T05:12:13.557Z,28.92
2019-03-13T05:13:15.302Z,34.07
2019-03-13T05:14:17.459Z,34.55
2019-03-13T05:15:19.144Z,34.76
2019-03-13T05:16:21.420Z,40.52
2019-03-13T05:17:23.446Z,35.37
2019-03-13T05:18:25.546Z,27.88
2019-03-13T05:19:29.230Z,31.43
2019-03-13T05:20:31.237Z,28.20
2019-03-13T05:21:33.155Z,27.89
2019-03-13T05:22:35.432Z,31.48
2019-03-13T05:23:37.609Z,30.70
2019-03-13T05:24:41.136Z,28.11
2019-03-13T05:25:43.932Z,35.12
2019-03-13T05:26:46.088Z,27.53
2019-03-13T05:27:47.828Z,27.08
2019-03-13T05:28:50.094Z,27.37
2019-03-13T05:29:52.191Z,27.49
2019-03-13T05:30:54.075Z,30.11
2019-03-13T05:31:57.030Z,29.20
2019-03-13T05:32:58.949Z,30.26
2019-03-13T05:34:01.018Z,28.66
2019-03-13T05:35:05.586Z,29.01
2019-03-13T05:36:07.646Z,34.27
2019-03-13T05:37:09.977Z,33.71
2019-03-13T05:38:11.966Z,29.41
2019-03-13T05:39:16.164Z,30.49
2019-03-13T05:40:18.002Z,36.77
2019-03-13T05:41:20.306Z,34.79
2019-03-13T05:42:21.984Z,28.29
2019-03-13T05:43:23.935Z,28.88
2019-03-13T05:44:26.330Z,29.26
2019-03-13T05:45:28.390Z,32.39
2019-03-13T05:46:30.505Z,31.00
2019-03-13T05:47:32.731Z,37.92
2019-03-13T05:48:34.487Z,28.28
2019-03-13T05:49:36.467Z,38.54
2019-03-13T05:50:38.760Z,33.85
2019-03-13T05:51:42.127Z,30.99
2019-03-13T05:52:44.589Z,34.29
2019-03-13T05:53:46.503Z,28.37
2019-03-13T05:54:48.415Z,28.02
2019-03-13T05:55:50.570Z,27.33
2019-03-13T05:56:52.686Z,28.48
2019-03-13T05:57:54.489Z,28.11
2019-03-13T05:58:56.599Z,27.30
2019-03-13T05:59:58.554Z,27.56
2019-03-13T06:01:00.624Z,31.69
2019-03-13T06:02:03.349Z,27.29
2019-03-13T06:03:05.720Z,31.50
2019-03-13T06:04:07.367Z,28.59
2019-03-13T06:05:10.006Z,26.98
2019-03-13T06:06:11.944Z,29.74
2019-03-13T06:07:14.058Z,27.44
2019-03-13T06:08:18.490Z,26.76
2019-03-13T06:09:20.861Z,26.96
2019-03-13T06:10:22.937Z,27.28
2019-03-13T06:11:25.243Z,26.90
2019-03-13T06:12:27.457Z,30.08
2019-03-13T06:13:29.425Z,26.70
2019-03-13T06:14:31.557Z,36.93
2019-03-13T06:15:33.676Z,29.49
2019-03-13T06:16:36.309Z,27.49
2019-03-13T06:17:38.561Z,28.67
2019-03-13T06:18:40.596Z,27.79
2019-03-13T06:19:42.614Z,27.71
2019-03-13T06:20:44.450Z,30.18
2019-03-13T06:21:46.330Z,32.90
2019-03-13T06:22:48.520Z,28.16
2019-03-13T06:23:50.504Z,26.89
2019-03-13T06:24:52.519Z,27.02
2019-03-13T06:25:54.644Z,31.75
2019-03-13T06:26:57.106Z,27.55
2019-03-13T06:27:59.126Z,30.40
2019-03-13T06:29:01.453Z,30.86
2019-03-13T06:30:18.292Z,30.21
2019-03-13T06:31:20.495Z,36.51
2019-03-13T06:32:23.043Z,32.50
2019-03-13T06:33:25.269Z,27.96
2019-03-13T06:34:27.389Z,30.32
2019-03-13T06:35:29.734Z,27.25
2019-03-13T06:36:31.934Z,30.47
2019-03-13T06:37:33.906Z,27.05
2019-03-13T06:38:37.544Z,31.22
2019-03-13T06:39:39.874Z,31.96
2019-03-13T06:40:42.143Z,27.31
2019-03-13T06:41:44.113Z,27.28
2019-03-13T06:42:46.468Z,27.01
2019-03-13T06:43:48.509Z,31.34
2019-03-13T06:44:50.480Z,29.56
2019-03-13T06:45:52.484Z,30.06
2019-03-13T06:46:54.738Z,27.61
2019-03-13T06:47:56.755Z,26.80
2019-03-13T06:48:58.444Z,33.92
2019-03-13T06:50:00.373Z,30.98
2019-03-13T06:51:02.783Z,27.53
2019-03-13T06:52:04.677Z,33.83
2019-03-13T06:53:06.777Z,27.72
2019-03-13T06:54:08.674Z,29.95
2019-03-13T06:55:10.809Z,27.43
2019-03-13T06:56:12.695Z,27.38
2019-03-13T06:57:14.779Z,29.69
2019-03-13T06:58:18.663Z,32.21
2019-03-13T06:59:25.143Z,27.54
2019-03-13T07:00:28.247Z,30.71
2019-03-13T07:01:38.919Z,30.65
2019-03-13T07:02:55.067Z,30.52
2019-03-13T07:04:15.319Z,34.28
2019-03-13T07:05:28.303Z,29.71
2019-03-13T07:06:35.251Z,29.57
2019-03-13T07:07:39.175Z,28.03
2019-03-13T07:08:48.488Z,26.81
2019-03-13T07:09:52.447Z,27.20
2019-03-13T07:11:00.842Z,27.93
2019-03-13T07:12:16.751Z,28.13
2019-03-13T07:13:29.701Z,32.06
2019-03-13T07:14:50.461Z,27.00
2019-03-13T07:16:00.141Z,30.90
2019-03-13T07:17:10.091Z,27.95
2019-03-13T07:18:22.931Z,31.78
2019-03-13T07:19:44.130Z,27.63
2019-03-13T07:20:51.419Z,27.47
2019-03-13T07:22:11.858Z,29.86
2019-03-13T07:23:21.442Z,27.80
2019-03-13T07:24:25.351Z,34.63
2019-03-13T07:25:29.462Z,27.67
2019-03-13T07:26:33.504Z,27.63
2019-03-13T07:27:47.843Z,29.65
2019-03-13T07:28:52.738Z,27.45
2019-03-13T07:29:54.928Z,31.65
2019-03-13T07:30:58.517Z,31.75
2019-03-13T07:32:02.438Z,28.28
2019-03-13T07:33:06.590Z,30.73
2019-03-13T07:34:22.752Z,29.38
2019-03-13T07:35:38.954Z,28.43
2019-03-13T07:36:59.535Z,31.37
2019-03-13T07:38:03.577Z,26.88
2019-03-13T07:39:10.720Z,26.87
2019-03-13T07:40:31.533Z,26.90
2019-03-13T07:41:41.438Z,29.31
2019-03-13T07:42:51.076Z,32.36
2019-03-13T07:44:03.690Z,30.96
2019-03-13T07:45:13.350Z,28.77
2019-03-13T07:46:18.125Z,27.64
2019-03-13T07:47:22.303Z,27.91
2019-03-13T07:48:26.211Z,40.01
2019-03-13T07:49:30.071Z,36.35
2019-03-13T07:50:40.267Z,28.24
2019-03-13T07:52:01.771Z,31.19
2019-03-13T07:53:15.322Z,35.80
2019-03-13T07:54:34.439Z,31.29
2019-03-13T07:55:44.125Z,36.45
2019-03-13T07:56:51.016Z,36.68
2019-03-13T07:57:54.857Z,33.95
2019-03-13T07:58:58.665Z,34.90
2019-03-13T08:00:02.663Z,29.21
2019-03-13T08:01:24.938Z,29.63
2019-03-13T08:02:28.983Z,33.13
2019-03-13T08:03:32.973Z,36.46
2019-03-13T08:04:37.413Z,29.09
2019-03-13T08:05:39.413Z,34.70
2019-03-13T08:06:52.050Z,32.18
2019-03-13T08:08:12.207Z,36.96
2019-03-13T08:09:17.008Z,32.13
2019-03-13T08:10:19.081Z,30.89
2019-03-13T08:11:25.925Z,38.13
2019-03-13T08:12:46.641Z,32.04
2019-03-13T08:13:50.734Z,36.75
2019-03-13T08:14:53.009Z,32.50
2019-03-13T08:16:09.924Z,38.96
2019-03-13T08:17:19.781Z,41.56
2019-03-13T08:18:31.040Z,32.95
2019-03-13T08:19:37.705Z,41.05
2019-03-13T08:20:41.562Z,30.64
2019-03-13T08:21:48.433Z,39.89
2019-03-13T08:22:52.348Z,37.63
2019-03-13T08:23:59.282Z,40.13
2019-03-13T08:25:15.620Z,38.89
2019-03-13T08:26:22.828Z,38.35
2019-03-13T08:27:39.698Z,39.00
2019-03-13T08:28:52.784Z,40.90
2019-03-13T08:30:03.565Z,33.03
2019-03-13T08:31:15.246Z,32.07
2019-03-13T08:32:31.653Z,32.12
2019-03-13T08:33:50.183Z,38.42
2019-03-13T08:34:54.276Z,33.96
2019-03-13T08:35:59.041Z,35.65
2019-03-13T08:37:14.779Z,31.90
2019-03-13T08:38:22.439Z,31.33
2019-03-13T08:39:28.835Z,29.93
2019-03-13T08:40:30.942Z,30.20
2019-03-13T08:41:41.110Z,30.70
2019-03-13T08:43:00.239Z,28.16
2019-03-13T08:44:17.333Z,33.09
2019-03-13T08:45:27.641Z,30.26
2019-03-13T08:46:34.434Z,31.30
2019-03-13T08:47:50.724Z,26.20
2019-03-13T08:49:11.257Z,26.73
2019-03-13T08:50:18.355Z,25.90
2019-03-13T08:51:27.915Z,25.78
2019-03-13T08:52:48.114Z,25.77
2019-03-13T08:53:58.073Z,25.96
2019-03-13T08:55:17.086Z,28.94
2019-03-13T08:56:30.817Z,29.15
2019-03-13T08:57:45.499Z,37.13
2019-03-13T08:58:58.331Z,29.17
2019-03-13T09:00:04.865Z,31.26
2019-03-13T09:01:11.841Z,32.25
2019-03-13T09:02:30.749Z,27.23
2019-03-13T09:03:34.360Z,36.88
2019-03-13T09:04:41.930Z,30.08
2019-03-13T09:06:01.250Z,27.03
2019-03-13T09:07:12.412Z,33.60
2019-03-13T09:08:17.341Z,26.70
2019-03-13T09:09:23.456Z,26.63
2019-03-13T09:10:36.404Z,25.98
2019-03-13T09:11:58.440Z,28.17
2019-03-13T09:13:12.367Z,33.07
2019-03-13T09:14:16.272Z,39.09
2019-03-13T09:15:28.852Z,37.71
2019-03-13T09:16:30.908Z,33.79
2019-03-13T09:17:35.895Z,29.72
2019-03-13T09:18:39.716Z,31.41
2019-03-13T09:19:47.986Z,32.07
2019-03-13T09:21:00.841Z,31.07
2019-03-13T09:22:04.586Z,33.31
2019-03-13T09:23:18.518Z,39.25
2019-03-13T09:24:39.548Z,36.72
2019-03-13T09:25:43.515Z,36.13
2019-03-13T09:26:54.438Z,31.83
2019-03-13T09:28:00.717Z,32.95
2019-03-13T09:29:05.091Z,33.05
2019-03-13T09:30:24.579Z,32.40
2019-03-13T09:31:41.566Z,30.47
2019-03-13T09:32:51.811Z,35.05
2019-03-13T09:34:07.551Z,30.33
2019-03-13T09:35:14.935Z,39.00
2019-03-13T09:36:19.630Z,30.98
2019-03-13T09:37:34.249Z,31.12
2019-03-13T09:38:42.111Z,38.17
2019-03-13T09:39:55.188Z,36.59
2019-03-13T09:41:11.240Z,36.52
2019-03-13T09:42:16.657Z,30.84
2019-03-13T09:43:32.791Z,35.62
2019-03-13T09:44:42.411Z,39.09
2019-03-13T09:45:58.523Z,31.40
2019-03-13T09:47:00.600Z,36.63
2019-03-13T09:48:10.673Z,33.06
2019-03-13T09:49:18.594Z,31.85
2019-03-13T09:50:31.074Z,31.73
2019-03-13T09:51:38.985Z,28.22
2019-03-13T09:52:53.146Z,33.41
2019-03-13T09:53:54.997Z,31.90
2019-03-13T09:55:10.523Z,30.91
2019-03-13T09:56:14.389Z,32.84
2019-03-13T09:57:34.840Z,28.52
2019-03-13T09:58:50.422Z,28.69
2019-03-13T09:59:55.052Z,31.05
2019-03-13T10:01:10.937Z,33.82
2019-03-13T10:02:17.879Z,34.46
2019-03-13T10:03:33.873Z,34.74
2019-03-13T10:04:40.461Z,36.91
2019-03-13T10:05:51.382Z,30.64
2019-03-13T10:06:55.136Z,28.60
2019-03-13T10:08:15.534Z,37.94
2019-03-13T10:09:31.594Z,29.68
2019-03-13T10:10:41.298Z,31.76
2019-03-13T10:12:02.054Z,38.00
2019-03-13T10:13:12.655Z,34.96
2019-03-13T10:14:16.924Z,37.09
2019-03-13T10:15:29.990Z,35.50
2019-03-13T10:16:35.053Z,32.73
2019-03-13T10:17:42.946Z,39.32
2019-03-13T10:19:05.269Z,33.59
2019-03-13T10:20:25.245Z,33.63
2019-03-13T10:21:32.580Z,34.79
2019-03-13T10:22:36.768Z,39.41
2019-03-13T10:23:46.400Z,32.55
2019-03-13T10:25:05.254Z,35.35
2019-03-13T10:26:11.663Z,33.80
2019-03-13T10:27:26.629Z,35.03
2019-03-13T10:28:30.379Z,32.53
2019-03-13T10:29:34.312Z,33.36
2019-03-13T10:30:44.279Z,33.88
2019-03-13T10:32:00.255Z,29.01
2019-03-13T10:33:20.912Z,33.01
2019-03-13T10:34:25.587Z,38.22
2019-03-13T10:35:42.369Z,35.48
2019-03-13T10:36:51.595Z,32.50
2019-03-13T10:38:13.222Z,33.34
2019-03-13T10:39:20.492Z,28.42
2019-03-13T10:40:39.554Z,36.29
2019-03-13T10:41:44.384Z,31.54
2019-03-13T10:42:48.227Z,30.41
2019-03-13T10:43:52.535Z,32.86
2019-03-13T10:44:56.405Z,29.43
2019-03-13T10:46:13.820Z,35.87
2019-03-13T10:47:21.532Z,38.03
2019-03-13T10:48:40.327Z,30.56
2019-03-13T10:49:44.245Z,33.76
2019-03-13T10:50:52.465Z,33.70
2019-03-13T10:52:02.286Z,34.14
2019-03-13T10:53:15.574Z,33.72
2019-03-13T10:54:22.602Z,35.12
2019-03-13T10:55:41.542Z,36.76
2019-03-13T10:56:53.682Z,33.15
2019-03-13T10:58:03.336Z,32.32
2019-03-13T10:59:05.585Z,32.28
2019-03-13T11:00:19.012Z,30.16
2019-03-13T11:01:23.864Z,35.62
2019-03-13T11:02:27.886Z,37.45
2019-03-13T11:03:37.827Z,31.67
2019-03-13T11:04:41.936Z,31.19
2019-03-13T11:05:51.947Z,34.90
2019-03-13T11:07:02.130Z,31.86
2019-03-13T11:08:13.010Z,32.89
2019-03-13T11:09:33.551Z,37.47
2019-03-13T11:10:35.963Z,31.61
2019-03-13T11:11:40.667Z,32.72
2019-03-13T11:12:44.727Z,34.51
2019-03-13T11:13:52.494Z,35.51
2019-03-13T11:14:54.599Z,35.54
2019-03-13T11:16:04.854Z,34.19
2019-03-13T11:17:09.898Z,32.86
2019-03-13T11:18:19.695Z,33.31
2019-03-13T11:19:21.648Z,32.71
2019-03-13T11:20:27.092Z,37.18
2019-03-13T11:21:29.295Z,32.25
2019-03-13T11:22:36.179Z,33.90
2019-03-13T11:23:56.678Z,37.44
2019-03-13T11:25:00.531Z,36.46
2019-03-13T11:26:20.853Z,40.96
2019-03-13T11:27:30.689Z,35.17
2019-03-13T11:28:50.663Z,43.63
2019-03-13T11:29:54.544Z,43.97
2019-03-13T11:31:07.319Z,45.30
2019-03-13T11:32:23.304Z,40.25
2019-03-13T11:33:33.809Z,43.86
2019-03-13T11:34:43.469Z,42.49
2019-03-13T11:35:54.191Z,44.02
2019-03-13T11:37:00.952Z,42.14
2019-03-13T11:38:13.334Z,41.36
2019-03-13T11:39:17.652Z,39.63
2019-03-13T11:40:21.863Z,35.36
2019-03-13T11:41:34.674Z,36.99
2019-03-13T11:42:38.518Z,33.24
2019-03-13T11:43:42.711Z,29.37
2019-03-13T11:44:47.291Z,29.71
2019-03-13T11:45:55.284Z,31.09
2019-03-13T11:46:59.064Z,29.02
2019-03-13T11:48:08.932Z,30.49
2019-03-13T11:49:16.234Z,30.29
2019-03-13T11:50:21.489Z,29.23
2019-03-13T11:51:25.240Z,31.46
2019-03-13T11:52:47.214Z,35.65
2019-03-13T11:53:58.600Z,29.86
2019-03-13T11:55:03.883Z,37.55
2019-03-13T11:56:17.094Z,31.57
2019-03-13T11:57:21.152Z,34.64
2019-03-13T11:58:41.828Z,37.67
2019-03-13T11:59:45.623Z,37.62
2019-03-13T12:00:50.122Z,39.93
2019-03-13T12:02:00.669Z,46.42
2019-03-13T12:03:16.611Z,42.44
2019-03-13T12:04:37.636Z,47.10
2019-03-13T12:05:58.666Z,41.71
2019-03-13T12:07:02.554Z,43.48
2019-03-13T12:08:06.768Z,44.60
2019-03-13T12:09:08.986Z,41.91
2019-03-13T12:10:13.393Z,41.13
2019-03-13T12:11:17.777Z,41.57
2019-03-13T12:12:26.183Z,39.83
2019-03-13T12:13:29.970Z,41.62
2019-03-13T12:14:49.271Z,38.37
2019-03-13T12:15:57.107Z,42.65
2019-03-13T12:17:03.487Z,40.49
2019-03-13T12:18:07.661Z,39.25
2019-03-13T12:19:09.839Z,37.38
2019-03-13T12:20:18.062Z,39.76
2019-03-13T12:21:26.269Z,42.27
2019-03-13T12:22:28.275Z,32.08
2019-03-13T12:23:32.197Z,35.84
2019-03-13T12:24:44.939Z,34.99
2019-03-13T12:26:03.309Z,34.05
2019-03-13T12:27:23.950Z,31.55
2019-03-13T12:28:33.739Z,42.03
2019-03-13T12:29:41.270Z,37.55
2019-03-13T12:30:43.572Z,41.00
2019-03-13T12:31:50.851Z,35.95
2019-03-13T12:32:54.801Z,44.21
2019-03-13T12:34:04.662Z,45.95
2019-03-13T12:35:17.692Z,45.65
2019-03-13T12:36:21.712Z,46.06
2019-03-13T12:37:41.974Z,47.06
2019-03-13T12:38:49.809Z,47.38
2019-03-13T12:39:56.514Z,47.35
2019-03-13T12:41:17.034Z,39.98
2019-03-13T12:42:24.100Z,45.03
2019-03-13T12:43:33.836Z,47.28
2019-03-13T12:44:36.065Z,46.42
2019-03-13T12:45:39.888Z,40.47
2019-03-13T12:47:00.388Z,42.65
2019-03-13T12:48:20.684Z,39.77
2019-03-13T12:49:22.542Z,44.17
2019-03-13T12:50:26.578Z,47.18
2019-03-13T12:51:39.868Z,45.21
2019-03-13T12:52:42.046Z,40.22
2019-03-13T12:53:49.712Z,40.57
2019-03-13T12:55:02.181Z,41.68
2019-03-13T12:56:21.696Z,44.01
2019-03-13T12:57:23.696Z,43.95
2019-03-13T12:58:30.355Z,46.13
2019-03-13T12:59:49.339Z,43.14
2019-03-13T13:01:02.188Z,42.58
2019-03-13T13:02:13.444Z,39.03
2019-03-13T13:03:23.594Z,41.72
2019-03-13T13:04:27.558Z,36.59
2019-03-13T13:05:40.704Z,44.10
2019-03-13T13:06:54.302Z,36.14
2019-03-13T13:08:04.328Z,43.14
2019-03-13T13:09:09.502Z,43.84
2019-03-13T13:10:17.553Z,41.96
2019-03-13T13:11:36.991Z,34.53
2019-03-13T13:12:39.062Z,42.35
2019-03-13T13:13:58.383Z,39.18
2019-03-13T13:15:17.607Z,45.32
2019-03-13T13:16:33.965Z,38.03
2019-03-13T13:17:45.969Z,39.99
2019-03-13T13:18:53.781Z,39.51
2019-03-13T13:19:56.549Z,40.69
2019-03-13T13:20:59.275Z,45.18
2019-03-13T13:22:01.265Z,41.90
2019-03-13T13:23:03.648Z,40.37
2019-03-13T13:24:05.660Z,41.22
2019-03-13T13:25:09.551Z,41.16
2019-03-13T13:26:12.082Z,39.44
2019-03-13T13:27:15.060Z,35.35
2019-03-13T13:28:17.401Z,40.90
2019-03-13T13:29:20.038Z,40.43
2019-03-13T13:30:21.918Z,38.30
2019-03-13T13:31:24.066Z,40.64
2019-03-13T13:32:26.128Z,43.23
2019-03-13T13:33:28.073Z,41.38
2019-03-13T13:34:30.366Z,36.15
2019-03-13T13:35:34.290Z,38.52
2019-03-13T13:36:36.946Z,32.10
2019-03-13T13:37:39.058Z,37.39
2019-03-13T13:38:41.404Z,40.83
2019-03-13T13:39:43.561Z,41.64
2019-03-13T13:40:46.096Z,37.14
2019-03-13T13:41:48.614Z,39.99
2019-03-13T13:42:50.288Z,40.34
2019-03-13T13:43:52.578Z,41.14
2019-03-13T13:44:55.693Z,43.37
2019-03-13T13:46:15.123Z,42.12
2019-03-13T13:47:17.441Z,39.47
2019-03-13T13:48:19.826Z,41.15
2019-03-13T13:49:22.006Z,39.72
2019-03-13T13:50:24.326Z,35.76
2019-03-13T13:51:26.770Z,40.63
2019-03-13T13:52:29.150Z,39.57
2019-03-13T13:53:31.392Z,37.09
2019-03-13T13:54:33.316Z,39.12
2019-03-13T13:55:35.777Z,40.15
2019-03-13T13:56:37.832Z,35.14
2019-03-13T13:57:39.632Z,35.63
2019-03-13T13:58:41.781Z,37.57
2019-03-13T13:59:44.172Z,32.06
2019-03-13T14:00:46.392Z,33.24
2019-03-13T14:01:48.436Z,33.74
2019-03-13T14:02:53.399Z,36.27
2019-03-13T14:03:55.445Z,39.88
2019-03-13T14:04:58.762Z,33.99
2019-03-13T14:06:00.799Z,33.80
2019-03-13T14:07:03.051Z,34.46